F/V Argentario — FGPE — position and weather

sailwx.info

Track history (hours):
 
Tides and Currents Weather Stations Pressure Air Temp Water Temp Dewpoint Dewpoint Depression Visibility Wind Speed Wind Dir Waves Ship Positions

F/V Argentario

Last reported at 2015-Apr-16 22:21 UTC. Time now 2015-Apr-21 21:02 UTC.
Position N 46°41' W 002°14'.

Length 22 m; draft 3.4 m.

Type: Fishing. MMSI: 228975000.

Date/timePositionNaut miles runAvg speedWind from/ knotsBaromVisibWave heightAir tempDewpointWater temp
2015-Apr-16 22:21N 46°41' W 002°14'3 4.3
2015-Apr-16 21:33N 46°39' W 002°10'4 4.2
2015-Apr-16 20:33N 46°36' W 002°06'4 4.2
2015-Apr-16 19:33N 46°34' W 002°01'4 4.4
2015-Apr-16 18:33N 46°31' W 001°56'5 5.1
2015-Apr-16 17:33N 46°29' W 001°49'1 1.1
2015-Apr-16 16:33N 46°29' W 001°47'9 9.1
2015-Apr-16 15:33N 46°22' W 001°55'9 9.5
2015-Apr-16 14:34N 46°14' W 002°04'26 2.3
2015-Apr-16 03:15N 45°53' W 002°27'3 4.8
2015-Apr-16 02:33N 45°56' W 002°24'5 4.4
2015-Apr-16 01:30N 45°60' W 002°20'4 3.9
2015-Apr-16 00:33N 46°02' W 002°16'4 3.5
2015-Apr-15 23:33N 46°05' W 002°13'4 3.3
2015-Apr-15 22:22N 46°09' W 002°10'11 3.8
2015-Apr-15 19:31N 46°17' W 002°00'4 4.3
2015-Apr-15 18:33N 46°21' W 001°57'5 4.6
2015-Apr-15 17:33N 46°24' W 001°53'5 4.7
2015-Apr-15 16:34N 46°28' W 001°49'2 2.1
2015-Apr-15 15:33N 46°30' W 001°47'9 8.9
2015-Apr-15 14:33N 46°22' W 001°54'1010.2
2015-Apr-15 13:33N 46°14' W 002°03'29 4.8
2015-Apr-15 07:31N 45°52' W 002°31'1 0.6
2015-Apr-15 06:07N 45°52' W 002°32'1 1.7
2015-Apr-15 05:27N 45°52' W 002°33'  
2015-Apr-12 23:18N 46°04' W 002°00'4 5.5
2015-Apr-12 22:34N 46°08' W 001°58'5 5.4
2015-Apr-12 21:33N 46°13' W 001°55'5 5.3
2015-Apr-12 20:34N 46°18' W 001°52'5 5.1
2015-Apr-12 19:34N 46°23' W 001°50'5 5.0
2015-Apr-12 18:34N 46°28' W 001°48'2 2.1
2015-Apr-12 17:33N 46°30' W 001°47'0 0.0
2015-Apr-12 16:34N 46°30' W 001°47'9 8.7
2015-Apr-12 15:33N 46°22' W 001°51'10 9.9
2015-Apr-12 14:31N 46°12' W 001°57'  
2015-Apr-09 11:29N 45°28' W 002°24'0 0.3
2015-Apr-09 09:31N 45°29' W 002°24'1 1.4
2015-Apr-09 08:33N 45°29' W 002°26'3 2.3
2015-Apr-09 07:28N 45°28' W 002°23'  
Track history (hours):
 
Tides and Currents Weather Stations Pressure Air Temp Water Temp Dewpoint Dewpoint Depression Visibility Wind Speed Wind Dir Waves Ship Positions

F/V Argentario

Last reported at 2015-Apr-16 22:21 UTC. Time now 2015-Apr-21 21:02 UTC.
Position N 46°41' W 002°14'.

Length 22 m; draft 3.4 m.

Type: Fishing. MMSI: 228975000.

Date/timePositionNaut miles runAvg speedWind from/ knotsBaromVisibWave heightAir tempDewpointWater temp
2015-Apr-16 22:21N 46°41' W 002°14'3 4.3
2015-Apr-16 21:33N 46°39' W 002°10'4 4.2
2015-Apr-16 20:33N 46°36' W 002°06'4 4.2
2015-Apr-16 19:33N 46°34' W 002°01'4 4.4
2015-Apr-16 18:33N 46°31' W 001°56'5 5.1
2015-Apr-16 17:33N 46°29' W 001°49'1 1.1
2015-Apr-16 16:33N 46°29' W 001°47'9 9.1
2015-Apr-16 15:33N 46°22' W 001°55'9 9.5
2015-Apr-16 14:34N 46°14' W 002°04'26 2.3
2015-Apr-16 03:15N 45°53' W 002°27'3 4.8
2015-Apr-16 02:33N 45°56' W 002°24'5 4.4
2015-Apr-16 01:30N 45°60' W 002°20'4 3.9
2015-Apr-16 00:33N 46°02' W 002°16'4 3.5
2015-Apr-15 23:33N 46°05' W 002°13'4 3.3
2015-Apr-15 22:22N 46°09' W 002°10'11 3.8
2015-Apr-15 19:31N 46°17' W 002°00'4 4.3
2015-Apr-15 18:33N 46°21' W 001°57'5 4.6
2015-Apr-15 17:33N 46°24' W 001°53'5 4.7
2015-Apr-15 16:34N 46°28' W 001°49'2 2.1
2015-Apr-15 15:33N 46°30' W 001°47'9 8.9
2015-Apr-15 14:33N 46°22' W 001°54'1010.2
2015-Apr-15 13:33N 46°14' W 002°03'29 4.8
2015-Apr-15 07:31N 45°52' W 002°31'1 0.6
2015-Apr-15 06:07N 45°52' W 002°32'1 1.7
2015-Apr-15 05:27N 45°52' W 002°33'  
2015-Apr-12 23:18N 46°04' W 002°00'4 5.5
2015-Apr-12 22:34N 46°08' W 001°58'5 5.4
2015-Apr-12 21:33N 46°13' W 001°55'5 5.3
2015-Apr-12 20:34N 46°18' W 001°52'5 5.1
2015-Apr-12 19:34N 46°23' W 001°50'5 5.0
2015-Apr-12 18:34N 46°28' W 001°48'2 2.1
2015-Apr-12 17:33N 46°30' W 001°47'0 0.0
2015-Apr-12 16:34N 46°30' W 001°47'9 8.7
2015-Apr-12 15:33N 46°22' W 001°51'10 9.9
2015-Apr-12 14:31N 46°12' W 001°57'  
2015-Apr-09 11:29N 45°28' W 002°24'0 0.3
2015-Apr-09 09:31N 45°29' W 002°24'1 1.4
2015-Apr-09 08:33N 45°29' W 002°26'3 2.3
2015-Apr-09 07:28N 45°28' W 002°23'  

Dump ship's entire track history